Impacts TAF Board
For situational awareness. Not to be used for flight planning purposes.
IDs:

KBFI - Seattle/Boeing Fld, WA, US

Issued at 2346 UTC 05 Dec 2019
Updated at 0116 UTC 06 Dec 2019
Potential Impact None Slight Moderate High
Time0053Z 06/02Z 06/03Z 06/04Z 06/05Z 06/06Z 06/07Z 06/08Z 06/09Z 06/10Z 06/11Z 06/12Z 06/13Z 06/14Z>>
Type OBS PRVL PRVL PRVL PRVL PRVL PRVL PRVL PRVL PRVL PRVL PRVL PRVL PRVL
VIS 10 >6 >6 >6 >6 >6 >6 >6 >6 >6 >6 6 6 6
CIG 55 150 150 150 150 70 70 70 70 70 70 10 10 10
Cover BKN BKN BKN BKN BKN OVC OVC OVC OVC OVC OVC OVC OVC OVC
FltCat VFR VFR VFR VFR VFR VFR VFR VFR VFR VFR VFR MVFR MVFR MVFR
WX -- -- -- -- -- -- -- -- -- -- -- BR BR BR
WDir VRB 360 360 360 360 120 120 120 120 120 120 VRB VRB VRB
WSpd 0 4 4 4 4 3 3 3 3 3 3 0 0 0
WGst -- -- -- -- -- -- -- -- -- -- -- -- -- --
Raw TAF
KBFI 052346Z 0600/0624 36004KT P6SM SCT020 BKN150
  FM060600 12003KT P6SM OVC070
  FM061200 00000KT 6SM BR OVC010
  FM061800 13005KT P6SM OVC050
  FM062300 14005KT P6SM OVC035


Raw METAR
KBFI 060053Z 00000KT 10SM BKN055 10/06 A3003 RMK AO2 SLP169 T01000061
KBFI 052353Z 24003KT 10SM CLR 10/06 A3004 RMK AO2 SLP173 T01000061 10106 20083 55005
KBFI 052253Z 00000KT 9SM SCT020 BKN150 11/06 A3004 RMK AO2 SLP171 T01060061

METAR Board
Radar Display
Forecast Discussion
For situational awareness. Not to be used for flight planning purposes.